createdAt,value
2023-11-26T00:01:39.357Z,15.68
2023-11-26T00:04:06.174Z,22.80
2023-11-26T00:06:32.761Z,24.63
2023-11-26T00:08:59.348Z,23.65
2023-11-26T00:11:26.003Z,21.05
2023-11-26T00:13:52.933Z,20.80
2023-11-26T00:16:19.846Z,18.02
2023-11-26T00:18:46.988Z,21.75
2023-11-26T00:21:13.934Z,19.05
2023-11-26T00:23:40.611Z,19.27
2023-11-26T00:26:07.283Z,17.58
2023-11-26T00:28:33.862Z,24.88
2023-11-26T00:31:00.423Z,17.38
2023-11-26T00:33:27.190Z,19.52
2023-11-26T00:35:53.824Z,18.95
2023-11-26T00:38:20.451Z,31.17
2023-11-26T00:40:47.067Z,16.33
2023-11-26T00:43:15.944Z,22.30
2023-11-26T00:45:42.963Z,21.02
2023-11-26T00:48:09.603Z,23.02
2023-11-26T00:50:36.240Z,17.67
2023-11-26T00:53:02.900Z,22.88
2023-11-26T00:55:29.495Z,16.52
2023-11-26T00:57:56.062Z,15.00
2023-11-26T01:00:22.640Z,17.48
2023-11-26T01:02:49.402Z,15.85
2023-11-26T01:05:16.288Z,18.02
2023-11-26T01:07:42.995Z,19.33
2023-11-26T01:10:09.869Z,17.98
2023-11-26T01:12:36.574Z,15.27
2023-11-26T01:15:03.231Z,12.75
2023-11-26T01:17:29.955Z,13.88
2023-11-26T01:19:56.611Z,18.73
2023-11-26T01:22:23.236Z,18.95
2023-11-26T01:24:49.895Z,13.65
2023-11-26T01:27:16.477Z,15.20
2023-11-26T01:29:43.063Z,13.60
2023-11-26T01:32:09.709Z,15.30
2023-11-26T01:34:36.369Z,14.68
2023-11-26T01:37:03.017Z,14.13
2023-11-26T01:39:29.626Z,14.07
2023-11-26T01:41:56.169Z,12.80
2023-11-26T01:44:22.906Z,19.10
2023-11-26T01:46:49.786Z,12.35
2023-11-26T01:49:16.637Z,14.38
2023-11-26T01:51:43.532Z,15.43
2023-11-26T01:54:10.801Z,18.70
2023-11-26T01:56:38.451Z,14.77
2023-11-26T01:59:05.193Z,18.05
2023-11-26T02:01:33.242Z,18.40
2023-11-26T02:03:59.874Z,20.58
2023-11-26T02:06:26.572Z,13.93
2023-11-26T02:08:53.369Z,13.95
2023-11-26T02:11:19.984Z,12.98
2023-11-26T02:13:54.118Z,19.52
2023-11-26T02:16:20.782Z,15.18
2023-11-26T02:18:47.395Z,14.63
2023-11-26T02:21:14.009Z,19.77
2023-11-26T02:23:41.792Z,19.58
2023-11-26T02:26:09.281Z,15.15
2023-11-26T02:28:36.819Z,16.65
2023-11-26T02:31:04.109Z,17.95
2023-11-26T02:33:53.438Z,22.17
2023-11-26T02:36:17.382Z,13.10
2023-11-26T02:38:43.980Z,19.27
2023-11-26T02:41:10.667Z,20.30
2023-11-26T02:43:37.652Z,16.50
2023-11-26T02:46:04.344Z,15.82
2023-11-26T02:48:31.013Z,13.77
2023-11-26T02:50:57.615Z,18.65
2023-11-26T02:53:24.299Z,19.52
2023-11-26T02:55:51.024Z,17.73
2023-11-26T02:58:17.619Z,13.27
2023-11-26T03:00:44.753Z,16.48
2023-11-26T03:03:11.406Z,13.65
2023-11-26T03:05:38.010Z,14.15
2023-11-26T03:08:05.110Z,14.00
2023-11-26T03:10:31.698Z,15.25
2023-11-26T03:12:58.440Z,15.95
2023-11-26T03:15:25.016Z,10.77
2023-11-26T03:17:51.611Z,15.65
2023-11-26T03:20:18.463Z,14.15
2023-11-26T03:22:45.142Z,13.25
2023-11-26T03:25:11.838Z,18.45
2023-11-26T03:27:38.426Z,9.95
2023-11-26T03:30:05.727Z,12.40
2023-11-26T03:32:32.414Z,16.02
2023-11-26T03:34:59.062Z,17.60
2023-11-26T03:37:25.672Z,12.93
2023-11-26T03:39:52.331Z,16.60
2023-11-26T03:42:26.131Z,18.08
2023-11-26T03:44:55.589Z,17.08
2023-11-26T03:47:22.260Z,14.00
2023-11-26T03:49:48.916Z,12.95
2023-11-26T03:52:15.489Z,13.88
2023-11-26T03:54:42.066Z,12.38
2023-11-26T03:57:11.477Z,12.13
2023-11-26T03:59:42.276Z,15.23
2023-11-26T04:02:08.968Z,11.95
2023-11-26T04:04:35.616Z,16.75
2023-11-26T04:07:02.221Z,13.73
2023-11-26T04:09:29.428Z,11.70
2023-11-26T04:11:59.097Z,12.40
2023-11-26T04:14:32.296Z,12.50
2023-11-26T04:16:59.503Z,19.13
2023-11-26T04:19:26.196Z,21.63
2023-11-26T04:21:52.984Z,14.02
2023-11-26T04:24:19.745Z,13.65
2023-11-26T04:26:47.073Z,12.57
2023-11-26T04:29:14.418Z,14.75
2023-11-26T04:31:41.076Z,11.43
2023-11-26T04:34:07.626Z,14.60
2023-11-26T04:36:34.261Z,13.23
2023-11-26T04:39:00.864Z,14.05
2023-11-26T04:41:27.617Z,12.13
2023-11-26T04:43:54.329Z,15.43
2023-11-26T04:46:20.937Z,17.60
2023-11-26T04:48:47.599Z,13.00
2023-11-26T04:51:14.239Z,14.90
2023-11-26T04:53:40.875Z,11.85
2023-11-26T04:56:07.769Z,13.57
2023-11-26T04:58:34.398Z,13.18
2023-11-26T05:01:00.956Z,15.18
2023-11-26T05:03:27.735Z,12.65
2023-11-26T05:05:54.399Z,18.85
2023-11-26T05:08:21.002Z,13.15
2023-11-26T05:10:47.616Z,12.63
2023-11-26T05:13:14.246Z,14.82
2023-11-26T05:15:40.818Z,16.20
2023-11-26T05:18:07.533Z,13.18
2023-11-26T05:20:34.260Z,12.45
2023-11-26T05:23:00.922Z,15.02
2023-11-26T05:25:27.502Z,12.93
2023-11-26T05:27:54.125Z,12.68
2023-11-26T05:30:20.740Z,14.68
2023-11-26T05:32:47.359Z,12.32
2023-11-26T05:35:14.526Z,14.88
2023-11-26T05:37:41.794Z,13.25
2023-11-26T05:40:09.574Z,14.63
2023-11-26T05:42:39.802Z,10.40
2023-11-26T05:45:06.679Z,20.15
2023-11-26T05:47:33.579Z,13.77
2023-11-26T05:50:00.955Z,15.07
2023-11-26T05:52:27.552Z,16.45
2023-11-26T05:54:54.125Z,13.98
2023-11-26T05:57:21.040Z,10.10
2023-11-26T05:59:47.624Z,13.48
2023-11-26T06:02:14.208Z,21.60
2023-11-26T06:04:40.756Z,12.52
2023-11-26T06:07:07.438Z,14.75
2023-11-26T06:09:34.047Z,16.33
2023-11-26T06:12:00.702Z,18.25
2023-11-26T06:14:27.272Z,12.77
2023-11-26T06:16:53.929Z,11.25
2023-11-26T06:19:20.488Z,12.65
2023-11-26T06:21:48.702Z,14.57
2023-11-26T06:24:15.391Z,14.13
2023-11-26T06:26:42.000Z,12.48
2023-11-26T06:29:08.683Z,11.70
2023-11-26T06:31:35.364Z,12.45
2023-11-26T06:34:01.985Z,11.73
2023-11-26T06:36:28.610Z,12.45
2023-11-26T06:38:56.997Z,12.20
2023-11-26T06:41:31.424Z,12.40
2023-11-26T06:43:58.520Z,14.35
2023-11-26T06:46:25.676Z,15.60
2023-11-26T06:48:52.528Z,11.63
2023-11-26T06:51:19.146Z,13.80
2023-11-26T06:53:46.238Z,13.82
2023-11-26T06:56:12.965Z,15.98
2023-11-26T06:58:41.213Z,12.23
2023-11-26T07:01:08.291Z,13.77
2023-11-26T07:03:36.117Z,10.88
2023-11-26T07:06:05.956Z,14.20
2023-11-26T07:08:32.543Z,13.18
2023-11-26T07:10:59.118Z,19.92
2023-11-26T07:13:26.097Z,10.80
2023-11-26T07:15:53.000Z,12.60
2023-11-26T07:18:19.889Z,12.40
2023-11-26T07:20:46.610Z,15.85
2023-11-26T07:23:13.445Z,11.73
2023-11-26T07:25:40.069Z,11.30
2023-11-26T07:28:07.257Z,15.00
2023-11-26T07:30:33.957Z,13.20
2023-11-26T07:33:00.546Z,16.92
2023-11-26T07:35:27.134Z,13.25
2023-11-26T07:37:53.700Z,13.02
2023-11-26T07:40:20.309Z,13.75
2023-11-26T07:42:46.869Z,18.52
2023-11-26T07:45:13.569Z,12.90
2023-11-26T07:47:40.221Z,12.23
2023-11-26T07:50:08.538Z,13.25
2023-11-26T07:52:35.834Z,14.57
2023-11-26T07:55:02.560Z,9.40
2023-11-26T07:57:29.259Z,17.83
2023-11-26T07:59:55.852Z,13.27
2023-11-26T08:02:22.439Z,16.90
2023-11-26T08:04:49.040Z,12.35
2023-11-26T08:07:15.647Z,21.38
2023-11-26T08:09:42.292Z,14.77
2023-11-26T08:12:09.069Z,14.30
2023-11-26T08:14:35.690Z,13.25
2023-11-26T08:17:02.230Z,9.90
2023-11-26T08:19:28.849Z,15.20
2023-11-26T08:21:55.541Z,17.40
2023-11-26T08:24:22.258Z,17.80
2023-11-26T08:26:49.065Z,12.70
2023-11-26T08:29:16.345Z,14.90
2023-11-26T08:31:43.874Z,10.65
2023-11-26T08:34:10.584Z,11.43
2023-11-26T08:36:46.546Z,10.40
2023-11-26T08:39:13.494Z,12.02
2023-11-26T08:41:40.209Z,12.55
2023-11-26T08:44:06.833Z,11.38
2023-11-26T08:46:33.405Z,12.68
2023-11-26T08:49:00.559Z,9.85
2023-11-26T08:51:27.227Z,12.45
2023-11-26T08:53:53.804Z,13.07
2023-11-26T08:56:20.382Z,8.80
2023-11-26T08:58:47.055Z,13.27
2023-11-26T09:01:13.538Z,11.15
2023-11-26T09:03:40.139Z,14.40
2023-11-26T09:06:06.876Z,9.93
2023-11-26T09:08:33.381Z,11.20
2023-11-26T09:10:59.930Z,13.57
2023-11-26T09:13:26.488Z,12.32
2023-11-26T09:15:53.048Z,10.23
2023-11-26T09:18:19.559Z,10.40
2023-11-26T09:20:46.026Z,18.23
2023-11-26T09:23:12.539Z,15.50
2023-11-26T09:25:38.964Z,15.88
2023-11-26T09:28:05.413Z,12.02
2023-11-26T09:30:32.521Z,18.05
2023-11-26T09:32:59.093Z,16.50
2023-11-26T09:35:25.584Z,23.33
2023-11-26T09:37:52.116Z,18.95
2023-11-26T09:40:18.698Z,25.52
2023-11-26T09:42:49.993Z,17.05
2023-11-26T09:45:17.216Z,16.52
2023-11-26T09:47:43.899Z,14.57
2023-11-26T09:50:10.555Z,11.88
2023-11-26T09:52:37.950Z,15.20
2023-11-26T09:55:05.122Z,13.23
2023-11-26T09:57:32.266Z,25.63
2023-11-26T09:59:59.610Z,24.73
2023-11-26T10:02:26.227Z,25.77
2023-11-26T10:04:53.479Z,27.35
2023-11-26T10:07:36.389Z,27.23
2023-11-26T10:10:08.033Z,32.63
2023-11-26T10:12:53.412Z,33.40
2023-11-26T10:15:22.019Z,89.28
2023-11-26T10:18:00.904Z,40.13
2023-11-26T10:20:27.898Z,19.75
2023-11-26T10:22:54.382Z,17.30
2023-11-26T10:25:21.066Z,11.27
2023-11-26T10:27:47.645Z,14.30
2023-11-26T10:30:24.865Z,13.00
2023-11-26T10:33:04.666Z,12.27
2023-11-26T10:35:48.894Z,11.57
2023-11-26T10:38:16.664Z,14.82
2023-11-26T10:40:43.166Z,13.95
2023-11-26T10:43:10.854Z,10.68
2023-11-26T10:45:39.530Z,12.27
2023-11-26T10:48:08.404Z,8.90
2023-11-26T10:50:39.840Z,19.10
2023-11-26T10:53:16.606Z,10.00
2023-11-26T10:55:49.614Z,14.45
2023-11-26T10:58:19.932Z,16.33
2023-11-26T11:00:49.631Z,15.43
2023-11-26T11:03:16.483Z,12.75
2023-11-26T11:05:43.101Z,11.48
2023-11-26T11:08:09.612Z,10.07
2023-11-26T11:11:05.392Z,14.10
2023-11-26T11:13:33.124Z,8.43
2023-11-26T11:15:59.977Z,7.70
2023-11-26T11:18:29.763Z,12.60
2023-11-26T11:21:04.854Z,10.68
2023-11-26T11:23:32.166Z,11.90
2023-11-26T11:25:58.805Z,12.50
2023-11-26T11:28:42.440Z,9.18
2023-11-26T11:31:11.047Z,14.80
2023-11-26T11:33:57.723Z,19.75
2023-11-26T11:36:42.914Z,7.63
2023-11-26T11:39:10.162Z,6.93
2023-11-26T11:42:08.089Z,10.40
2023-11-26T11:44:42.339Z,9.30
2023-11-26T11:47:41.829Z,5.68
2023-11-26T11:50:10.051Z,9.10
2023-11-26T11:52:37.220Z,12.50
2023-11-26T11:55:32.231Z,7.65
2023-11-26T11:58:11.221Z,27.45
2023-11-26T12:00:37.780Z,26.13
2023-11-26T12:03:06.021Z,30.60
2023-11-26T12:05:32.569Z,11.75
2023-11-26T12:07:59.407Z,9.35
2023-11-26T12:10:30.287Z,14.73
2023-11-26T12:13:04.770Z,16.02
2023-11-26T12:15:31.829Z,7.75
2023-11-26T12:17:59.454Z,12.82
2023-11-26T12:20:26.564Z,7.68
2023-11-26T12:22:53.808Z,15.48
2023-11-26T12:25:20.356Z,12.25
2023-11-26T12:27:46.954Z,11.45
2023-11-26T12:30:14.250Z,22.08
2023-11-26T12:32:45.099Z,21.35
2023-11-26T12:35:15.002Z,10.27
2023-11-26T12:37:42.792Z,10.48
2023-11-26T12:40:11.546Z,6.95
2023-11-26T12:42:38.381Z,11.43
2023-11-26T12:45:06.520Z,9.95
2023-11-26T12:47:33.062Z,6.20
2023-11-26T12:49:59.726Z,8.20
2023-11-26T12:52:32.500Z,10.13
2023-11-26T12:55:05.880Z,10.80
2023-11-26T12:57:39.510Z,7.40
2023-11-26T13:00:07.811Z,7.45
2023-11-26T13:02:34.327Z,12.93
2023-11-26T13:05:00.944Z,9.07
2023-11-26T13:07:38.253Z,13.05
2023-11-26T13:10:05.229Z,8.98
2023-11-26T13:12:32.986Z,14.23
2023-11-26T13:14:59.490Z,20.27
2023-11-26T13:17:34.849Z,19.38
2023-11-26T13:20:01.392Z,17.80
2023-11-26T13:22:27.926Z,17.38
2023-11-26T13:24:54.381Z,14.20
2023-11-26T13:27:20.847Z,9.23
2023-11-26T13:29:47.318Z,10.70
2023-11-26T13:32:13.812Z,11.75
2023-11-26T13:34:40.347Z,18.15
2023-11-26T13:37:06.891Z,18.92
2023-11-26T13:39:33.613Z,5.47
2023-11-26T13:42:00.275Z,18.80
2023-11-26T13:44:26.740Z,34.13
2023-11-26T13:46:53.276Z,14.82
2023-11-26T13:49:19.809Z,32.70
2023-11-26T13:51:46.397Z,14.30
2023-11-26T13:54:12.832Z,10.65
2023-11-26T13:56:39.291Z,11.75
2023-11-26T13:59:05.739Z,16.65
2023-11-26T14:01:32.500Z,11.10
2023-11-26T14:03:59.265Z,8.88
2023-11-26T14:06:25.950Z,9.90
2023-11-26T14:08:52.493Z,9.80
2023-11-26T14:11:19.107Z,12.40
2023-11-26T14:13:45.750Z,13.98
2023-11-26T14:16:14.982Z,14.43
2023-11-26T14:18:41.773Z,12.77
2023-11-26T14:21:08.310Z,12.40
2023-11-26T14:23:34.772Z,10.38
2023-11-26T14:26:01.308Z,11.10
2023-11-26T14:28:27.789Z,8.80
2023-11-26T14:30:55.036Z,8.50
2023-11-26T14:33:23.003Z,8.73
2023-11-26T14:35:49.605Z,8.82
2023-11-26T14:38:16.113Z,7.30
2023-11-26T14:40:42.626Z,8.80
2023-11-26T14:43:09.155Z,11.70
2023-11-26T14:45:36.699Z,12.70
2023-11-26T14:48:03.404Z,9.35
2023-11-26T14:50:29.907Z,16.15
2023-11-26T14:52:56.372Z,13.57
2023-11-26T14:55:22.838Z,13.02
2023-11-26T14:57:49.326Z,11.48
2023-11-26T15:00:16.138Z,12.85
2023-11-26T15:02:42.714Z,11.35
2023-11-26T15:05:09.550Z,13.27
2023-11-26T15:07:36.059Z,12.00
2023-11-26T15:10:02.715Z,11.82
2023-11-26T15:12:29.316Z,12.80
2023-11-26T15:14:55.797Z,12.82
2023-11-26T15:17:22.448Z,14.90
2023-11-26T15:19:48.942Z,19.70
2023-11-26T15:22:15.407Z,11.65
2023-11-26T15:24:42.377Z,11.80
2023-11-26T15:27:08.841Z,11.98
2023-11-26T15:29:35.418Z,9.45
2023-11-26T15:32:01.981Z,12.30
2023-11-26T15:34:28.493Z,12.32
2023-11-26T15:36:55.030Z,13.63
2023-11-26T15:39:21.512Z,50.08
2023-11-26T15:41:47.927Z,22.77
2023-11-26T15:44:14.494Z,15.45
2023-11-26T15:46:41.024Z,10.40
2023-11-26T15:49:07.538Z,10.68
2023-11-26T15:51:34.125Z,5.85
2023-11-26T15:54:02.887Z,6.07
2023-11-26T15:56:30.363Z,9.57
2023-11-26T15:58:56.811Z,9.38
2023-11-26T16:01:23.422Z,11.18
2023-11-26T16:03:50.308Z,7.55
2023-11-26T16:06:16.948Z,10.68
2023-11-26T16:08:43.421Z,14.32
2023-11-26T16:11:09.895Z,10.80
2023-11-26T16:13:36.797Z,8.95
2023-11-26T16:16:03.504Z,10.95
2023-11-26T16:18:30.172Z,8.02
2023-11-26T16:20:56.866Z,4.47
2023-11-26T16:23:23.365Z,8.70
2023-11-26T16:25:49.951Z,6.55
2023-11-26T16:28:16.566Z,9.35
2023-11-26T16:30:43.050Z,13.63
2023-11-26T16:33:09.578Z,8.00
2023-11-26T16:35:36.313Z,14.27
2023-11-26T16:38:02.758Z,9.77
2023-11-26T16:40:29.184Z,11.00
2023-11-26T16:42:55.729Z,11.32
2023-11-26T16:45:22.605Z,36.90
2023-11-26T16:47:49.604Z,9.85
2023-11-26T16:50:16.410Z,8.57
2023-11-26T16:52:42.896Z,11.60
2023-11-26T16:55:09.702Z,9.32
2023-11-26T16:57:36.358Z,7.93
2023-11-26T17:00:03.516Z,6.57
2023-11-26T17:02:30.108Z,4.38
2023-11-26T17:04:56.577Z,7.63
2023-11-26T17:07:23.471Z,7.22
2023-11-26T17:09:50.038Z,7.72
2023-11-26T17:12:16.589Z,8.18
2023-11-26T17:14:43.126Z,7.55
2023-11-26T17:17:09.921Z,9.52
2023-11-26T17:19:36.437Z,9.10
2023-11-26T17:22:02.926Z,9.05
2023-11-26T17:24:29.453Z,11.80
2023-11-26T17:26:56.097Z,9.02
2023-11-26T17:29:22.562Z,10.10
2023-11-26T17:31:49.087Z,13.13
2023-11-26T17:34:15.639Z,8.00
2023-11-26T17:36:42.870Z,10.82
2023-11-26T17:39:09.348Z,7.10
2023-11-26T17:41:35.870Z,10.52
2023-11-26T17:44:02.355Z,10.32
2023-11-26T17:46:28.868Z,10.35
2023-11-26T17:48:55.417Z,47.65
2023-11-26T17:51:21.874Z,16.60
2023-11-26T17:53:48.389Z,24.30
2023-11-26T17:56:15.249Z,18.52
2023-11-26T17:58:41.929Z,22.33
2023-11-26T18:01:17.382Z,12.63
2023-11-26T18:03:43.983Z,12.38
2023-11-26T18:06:10.847Z,12.23
2023-11-26T18:08:38.056Z,9.65
2023-11-26T18:11:04.814Z,10.77
2023-11-26T18:13:33.142Z,15.25
2023-11-26T18:15:59.856Z,12.25
2023-11-26T18:18:26.404Z,14.02
2023-11-26T18:20:52.969Z,24.15
2023-11-26T18:23:19.446Z,19.90
2023-11-26T18:25:45.926Z,14.85
2023-11-26T18:28:12.512Z,15.93
2023-11-26T18:30:39.187Z,17.30
2023-11-26T18:33:05.829Z,17.08
2023-11-26T18:35:32.435Z,11.73
2023-11-26T18:37:58.936Z,14.30
2023-11-26T18:40:25.391Z,10.93
2023-11-26T18:42:51.954Z,19.08
2023-11-26T18:45:18.576Z,34.20
2023-11-26T18:47:48.499Z,40.35
2023-11-26T18:50:17.990Z,84.97
2023-11-26T18:52:44.717Z,40.20
2023-11-26T18:55:11.299Z,36.17
2023-11-26T18:57:37.810Z,45.42
2023-11-26T19:00:04.885Z,34.45
2023-11-26T19:02:31.495Z,38.85
2023-11-26T19:04:58.082Z,29.75
2023-11-26T19:07:24.543Z,40.83
2023-11-26T19:09:51.013Z,39.47
2023-11-26T19:12:17.535Z,70.75
2023-11-26T19:14:44.037Z,64.25
2023-11-26T19:17:10.567Z,94.35
2023-11-26T19:19:37.009Z,102.93
2023-11-26T19:22:03.726Z,51.65
2023-11-26T19:24:30.258Z,34.25
2023-11-26T19:26:56.750Z,15.45
2023-11-26T19:29:23.217Z,13.52
2023-11-26T19:31:49.691Z,12.50
2023-11-26T19:34:16.263Z,19.90
2023-11-26T19:36:42.890Z,19.88
2023-11-26T19:39:09.303Z,14.07
2023-11-26T19:41:40.201Z,17.13
2023-11-26T19:44:06.625Z,20.85
2023-11-26T19:46:33.169Z,21.83
2023-11-26T19:48:59.778Z,15.27
2023-11-26T19:51:26.331Z,19.00
2023-11-26T19:53:52.805Z,36.78
2023-11-26T19:56:19.386Z,21.30
2023-11-26T19:58:46.148Z,21.38
2023-11-26T20:01:12.864Z,22.77
2023-11-26T20:03:40.186Z,26.42
2023-11-26T20:06:07.661Z,13.48
2023-11-26T20:08:34.378Z,9.05
2023-11-26T20:11:01.608Z,10.98
2023-11-26T20:13:28.816Z,11.32
2023-11-26T20:15:55.359Z,13.52
2023-11-26T20:18:21.834Z,16.35
2023-11-26T20:20:48.360Z,11.88
2023-11-26T20:23:14.784Z,14.80
2023-11-26T20:25:41.273Z,13.10
2023-11-26T20:28:08.103Z,15.13
2023-11-26T20:30:35.543Z,38.25
2023-11-26T20:33:02.708Z,17.52
2023-11-26T20:35:29.191Z,11.52
2023-11-26T20:37:55.750Z,18.02
2023-11-26T20:40:22.344Z,18.88
2023-11-26T20:42:48.789Z,18.48
2023-11-26T20:45:15.400Z,21.60
2023-11-26T20:47:42.334Z,20.10
2023-11-26T20:50:09.191Z,15.63
2023-11-26T20:52:35.724Z,20.83
2023-11-26T20:55:11.615Z,21.73
2023-11-26T20:57:39.216Z,28.83
2023-11-26T21:00:06.802Z,49.03
2023-11-26T21:02:33.476Z,68.45
2023-11-26T21:05:00.155Z,38.03
2023-11-26T21:07:26.714Z,64.15
2023-11-26T21:09:53.294Z,10.25
2023-11-26T21:12:19.970Z,13.20
2023-11-26T21:14:46.435Z,10.20
2023-11-26T21:17:13.075Z,11.65
2023-11-26T21:19:39.593Z,10.68
2023-11-26T21:22:06.269Z,8.80
2023-11-26T21:24:32.697Z,12.45
2023-11-26T21:26:59.130Z,10.02
2023-11-26T21:29:25.600Z,11.35
2023-11-26T21:31:52.066Z,13.50
2023-11-26T21:34:18.771Z,11.55
2023-11-26T21:36:45.275Z,8.98
2023-11-26T21:39:11.721Z,9.68
2023-11-26T21:41:38.268Z,15.32
2023-11-26T21:44:04.815Z,12.68
2023-11-26T21:46:36.223Z,12.38
2023-11-26T21:49:08.218Z,14.57
2023-11-26T21:51:34.799Z,11.27
2023-11-26T21:54:01.443Z,10.80
2023-11-26T21:56:27.983Z,16.50
2023-11-26T21:58:54.419Z,24.73
2023-11-26T22:01:21.058Z,12.25
2023-11-26T22:03:51.315Z,15.77
2023-11-26T22:06:18.473Z,18.35
2023-11-26T22:08:45.095Z,17.88
2023-11-26T22:11:17.865Z,16.90
2023-11-26T22:13:44.500Z,16.17
2023-11-26T22:16:18.337Z,11.60
2023-11-26T22:18:46.199Z,16.88
2023-11-26T22:21:17.676Z,22.50
2023-11-26T22:23:44.399Z,16.95
2023-11-26T22:26:11.673Z,14.50
2023-11-26T22:28:40.170Z,17.92
2023-11-26T22:31:07.352Z,14.27
2023-11-26T22:33:34.064Z,21.55
2023-11-26T22:36:00.697Z,18.00
2023-11-26T22:38:27.270Z,14.82
2023-11-26T22:40:53.928Z,16.02
2023-11-26T22:43:21.146Z,19.80
2023-11-26T22:45:47.882Z,13.60
2023-11-26T22:48:14.541Z,13.65
2023-11-26T22:50:50.929Z,19.92
2023-11-26T22:53:19.225Z,17.75
2023-11-26T22:55:45.847Z,18.88
2023-11-26T22:58:12.560Z,19.60
2023-11-26T23:00:39.243Z,20.98
2023-11-26T23:03:05.951Z,21.38
2023-11-26T23:05:32.604Z,19.02
2023-11-26T23:07:59.246Z,20.17
2023-11-26T23:10:25.856Z,10.73
2023-11-26T23:12:52.448Z,14.93
2023-11-26T23:15:19.120Z,18.55
2023-11-26T23:17:45.877Z,11.70
2023-11-26T23:20:12.675Z,16.45
2023-11-26T23:22:39.292Z,19.35
2023-11-26T23:25:06.535Z,17.38
2023-11-26T23:27:33.128Z,17.20
2023-11-26T23:29:59.750Z,14.65
2023-11-26T23:32:26.374Z,13.55
2023-11-26T23:34:52.968Z,13.50
2023-11-26T23:37:19.559Z,13.48
2023-11-26T23:39:46.245Z,14.90
2023-11-26T23:42:12.925Z,17.98
2023-11-26T23:44:39.540Z,19.77
2023-11-26T23:47:06.263Z,15.68
2023-11-26T23:49:32.964Z,13.23
2023-11-26T23:51:59.601Z,12.77
2023-11-26T23:54:26.292Z,8.95
2023-11-26T23:56:53.382Z,11.77
2023-11-26T23:59:20.016Z,15.68
